• Join FlightAware (Why Join?)
  • Login
  • US Flag 
04:31PM EDT


 

Airport Tracker/Info


-or-


 

Live Flight TrackerFlight Track Log ✈ VIN842 ✈ 10-May-2012 ✈ YGTE - YPDN / DRW

Flight Track Log - Related Links

Times and Time Zones

All times are in EDT time to prevent confusion due to time zone crossing. See the VIN842 flight status page for this flight to view local times or setup timezone preferences in your user account.

Time Position Orientation Groundspeed Altitude Reporting Facility
EDT Latitude Longitude Course Direction KTS MPH feet Rate Location/Type
09:34PM -13.8940 136.1511 285° West 18,000  Level Aus ATC (Calculated)
09:35PM -13.8777 136.0903 285° West 18,000 60 Level Aus ATC (Calculated)
09:37PM -13.8419 135.9814 285° West  Level FlightAware Approximate
09:38PM -13.8286 135.9081 285° West 18,000  Level Aus ATC (Calculated)
09:40PM -13.7925 135.7993 285° West  Level FlightAware Approximate
09:41PM -13.7714 135.7359 284° West  Level FlightAware Approximate
09:42PM -13.7630 135.6653 285° West 18,000  Level Aus ATC (Calculated)
09:42PM -13.7630 135.6653 285° West 18,000 120 Level Aus ATC (Calculated)
09:43PM -13.7384 135.5925 284° West  Level FlightAware Approximate
09:44PM -13.7170 135.5293 283° West  Level FlightAware Approximate
09:45PM -13.6957 135.4661 282° West  Level FlightAware Approximate
09:46PM -13.6742 135.4028 280° West  Level FlightAware Approximate
09:47PM -13.6528 135.3396 277° West  Level FlightAware Approximate
09:48PM -13.6314 135.2764 270° West  Level FlightAware Approximate
09:49PM -13.6099 135.2132 247° West  Level FlightAware Approximate
09:50PM -13.5884 135.1500 165° South  Level FlightAware Approximate
09:50PM -13.6144 135.1194 112° Southeast 18,000  Level Aus ATC (Calculated)
09:52PM -13.5813 134.9981 107° East 18,000 600 Level Aus ATC (Calculated)
09:53PM -13.6313 135.1617 292° West 249 287 20,000 900 Climbing Aus ATC (RADAR)
09:54PM -13.6105 135.1081 283° West 259 298 20,000  Level Aus ATC (RADAR)
09:56PM -13.5840 134.9943 294° West 234 269 20,000  Level Aus ATC (RADAR)
09:57PM -13.5531 134.9221 273° West 259 298 20,000  Level Aus ATC (RADAR)
09:58PM -13.5505 134.8703 282° West 231 266 20,000  Level Aus ATC (RADAR)
09:58PM -13.5428 134.8333 290° West 225 259 20,000  Level Aus ATC (RADAR)
09:59PM -13.5245 134.7818 287° West 240 276 20,000  Level Aus ATC (RADAR)
10:01PM -13.4895 134.6629 285° West 240 276 20,000  Level Aus ATC (RADAR)
10:01PM -13.4814 134.6307 286° West 234 269 20,000  Level Aus ATC (RADAR)
10:02PM -13.4628 134.5642 287° West 240 276 20,000  Level Aus ATC (RADAR)
10:03PM -13.4493 134.5193 284° West 243 280 20,000  Level Aus ATC (RADAR)
10:04PM -13.4399 134.4804 290° West 243 280 20,000  Level Aus ATC (RADAR)
10:04PM -13.4192 134.4229 295° West 235 270 20,000  Level Aus ATC (RADAR)
10:05PM -13.4009 134.3831 291° West 247 284 20,000  Level Aus ATC (RADAR)
10:07PM -13.3538 134.2551 293° West 235 270 20,000  Level Aus ATC (RADAR)
10:08PM -13.3260 134.1863 292° West 252 290 20,000  Level Aus ATC (RADAR)
10:09PM -13.3039 134.1312 292° West 248 285 20,000  Level Aus ATC (RADAR)
10:10PM -13.2871 134.0877 291° West 246 283 20,000  Level Aus ATC (RADAR)
10:11PM -13.2432 133.9726 291° West 247 284 20,000  Level Aus ATC (RADAR)
10:12PM -13.2316 133.9410 292° West 242 278 20,000  Level Aus ATC (RADAR)
10:13PM -13.2060 133.8741 291° West 245 282 20,000  Level Aus ATC (RADAR)
10:14PM -13.1855 133.8191 291° West 244 281 20,000  Level Aus ATC (RADAR)
10:14PM -13.1714 133.7806 292° West 244 281 20,000  Level Aus ATC (RADAR)
10:15PM -13.1474 133.7207 291° West 245 282 20,000  Level Aus ATC (RADAR)
10:17PM -13.1055 133.6099 291° West 247 284 20,000  Level Aus ATC (RADAR)
10:18PM -13.0810 133.5435 291° West 246 283 20,000  Level Aus ATC (RADAR)
10:19PM -13.0602 133.4883 291° West 247 284 20,000  Level Aus ATC (RADAR)
10:19PM -13.0456 133.4496 291° West 247 284 20,000  Level Aus ATC (RADAR)
10:20PM -13.0245 133.3947 292° West 245 282 20,000  Level Aus ATC (RADAR)
10:22PM -12.9785 133.2799 292° West 246 283 20,000  Level Aus ATC (RADAR)
10:23PM -12.9527 133.2134 291° West 248 285 20,000  Level Aus ATC (RADAR)
10:24PM -12.9320 133.1579 292° West 247 284 20,000  Level Aus ATC (RADAR)
10:24PM -12.9166 133.1192 291° West 248 285 20,000  Level Aus ATC (RADAR)
10:25PM -12.8956 133.0633 291° West 249 287 20,000  Level Aus ATC (RADAR)
10:27PM -12.8541 132.9523 292° West 247 284 20,000  Level Aus ATC (RADAR)
10:27PM -12.8412 132.9197 291° West 245 282 20,000  Level Aus ATC (RADAR)
10:28PM -12.8267 132.8813 292° West 244 281 20,000  Level Aus ATC (RADAR)
10:29PM -12.8077 132.8318 291° West 245 282 20,000  Level Aus ATC (RADAR)
10:29PM -12.7912 132.7881 293° West 244 281 20,000  Level Aus ATC (RADAR)
10:30PM -12.7687 132.7338 292° West 245 282 20,000  Level Aus ATC (RADAR)
10:32PM -12.7298 132.6349 290° West 245 282 20,000  Level Aus ATC (RADAR)
10:32PM -12.7160 132.5963 292° West 245 282 20,000  Level Aus ATC (RADAR)
10:33PM -12.6944 132.5414 292° West 246 283 20,000  Level Aus ATC (RADAR)
10:34PM -12.6749 132.4922 293° West 245 282 20,000  Level Aus ATC (RADAR)
10:34PM -12.6589 132.4539 291° West 247 284 20,000  Level Aus ATC (RADAR)
10:35PM -12.6363 132.3929 292° West 246 283 20,000  Level Aus ATC (RADAR)
10:36PM -12.6021 132.3041 288° West 249 287 20,000  Level Aus ATC (RADAR)
10:37PM -12.5917 132.2710 289° West 244 281 20,000  Level Aus ATC (RADAR)
10:38PM -12.5690 132.2036 284° West 246 283 20,000  Level Aus ATC (RADAR)
10:39PM -12.5550 132.1466 283° West 246 283 20,000  Level Aus ATC (RADAR)
10:39PM -12.5455 132.1062 285° West 246 283 20,000  Level Aus ATC (RADAR)
10:40PM -12.5322 132.0550 283° West 246 283 20,000  Level Aus ATC (RADAR)
10:42PM -12.5049 131.9349 283° West 244 281 20,000  Level Aus ATC (RADAR)
10:43PM -12.4892 131.8655 284° West 247 284 20,000  Level Aus ATC (RADAR)
10:44PM -12.4754 131.8080 285° West 248 285 20,000  Level Aus ATC (RADAR)
10:44PM -12.4652 131.7681 281° West 246 283 20,000 -720 Level Aus ATC (RADAR)
10:45PM -12.4537 131.7065 277° West 263 303 19,000 -1,440 Descending Aus ATC (RADAR)
10:47PM -12.4394 131.5804 276° West 294 338 16,700 -1,560 Descending Aus ATC (RADAR)
10:47PM -12.4353 131.5388 277° West 289 333 15,900 -1,680 Descending Aus ATC (RADAR)
10:48PM -12.4274 131.4689 276° West 293 337 14,500 -1,740 Descending Aus ATC (RADAR)
10:49PM -12.4204 131.4050 277° West 294 338 13,200 -1,740 Descending Aus ATC (RADAR)
10:49PM -12.4132 131.3464 277° West 301 346 12,100 -1,680 Descending Aus ATC (RADAR)
10:50PM -12.4057 131.2820 277° West 298 343 10,900 -1,740 Descending Aus ATC (RADAR)
10:52PM -12.3914 131.1552 277° West 291 335 8,300 -1,800 Descending Aus ATC (RADAR)
10:52PM -12.3831 131.0862 276° West 285 328 6,800 -1,740 Descending Aus ATC (RADAR)
10:53PM -12.3779 131.0325 284° West 277 319 5,700 -1,500 Descending Aus ATC (RADAR)
10:54PM -12.3645 130.9769 289° West 259 298 4,700 -1,320 Descending Aus ATC (RADAR)
10:54PM -12.3505 130.9358 289° West 253 291 4,000 -480 Descending Aus ATC (RADAR)
10:55PM -12.3344 130.8878 268° West 230 265 4,100 -660 Climbing Aus ATC (RADAR)
10:57PM -12.3371 130.7989 210° Southwest 213 245 2,500 -960 Descending Aus ATC (RADAR)
10:57PM -12.3591 130.7859 142° Southeast 185 213 2,100 -840 Descending Aus ATC (RADAR)
10:58PM -12.3913 130.8112 109° East 145 167 1,300 -780 Descending Aus ATC (RADAR)
10:59PM -12.4002 130.8381 109° East 129 148 800 -720 Descending Aus ATC (RADAR)
11:00PM -12.4070 130.8578 313° West 112 129 300 1,620 Descending Aus ATC (RADAR)
11:04PM -12.3023 130.7442 239° Southwest 8,200 1,080 Climbing Aus ATC (Calculated)
11:05PM -12.3234 130.7084 209° Southwest 5,800 -1,380 Descending Aus ATC (Calculated)
11:06PM -12.3512 130.6926 109° East 4,900 -3,060 Descending Aus ATC (Calculated)
11:07PM -12.3580 130.7128 110° East 100 -7,620 Descending Aus ATC (Calculated)
11:08PM -12.3872 130.7971 105° East  Level Estimated
11:09PM -12.4314 130.9613 281° West  Level FlightAware Approximate
11:10PM -12.4198 130.9022 101° East  Level Estimated
11:11PM -12.4314 130.9613 281° West  Level FlightAware Approximate
11:12PM -12.4198 130.9022 101° East  Level Estimated
11:13PM -12.4314 130.9613 281° West  Level FlightAware Approximate
11:14PM -12.4198 130.9022 101° East  Level Estimated
11:15PM -12.4314 130.9613 281° West  Level FlightAware Approximate
11:16PM -12.4198 130.9022 101° East  Level Estimated
11:17PM -12.4314 130.9613 281° West  Level FlightAware Approximate
11:18PM -12.4198 130.9022 101° East  Level Estimated
11:19PM -12.4314 130.9613 281° West  Level FlightAware Approximate
11:20PM -12.4198 130.9022 281° West  Level Estimated